Time;durP1;ratioP1;P1;durP2;ratioP2;P2;SDS_P1;SDS_P2;PMS_P1;PMS_P2;Temp;Humidity;BMP_temperature;BMP_pressure;BME280_temperature;BME280_humidity;BME280_pressure;Samples;Min_cycle;Max_cycle;Signal;HPM_P1;HPM_P2
2022/07/29 00:00:40;;;;;;;2.60;1.13;;;15.10;99.90;;;;;;4975797;28;20101;-72
2022/07/29 00:03:06;;;;;;;1.65;0.95;;;15.10;99.90;;;;;;4957219;28;20062;-72
2022/07/29 00:05:32;;;;;;;1.67;0.85;;;15.10;99.90;;;;;;4975568;28;20399;-73
2022/07/29 00:07:57;;;;;;;1.23;1.00;;;15.10;99.90;;;;;;4975768;28;20031;-74
2022/07/29 00:10:23;;;;;;;5.40;0.93;;;15.10;99.90;;;;;;4975682;28;20046;-74
2022/07/29 00:12:48;;;;;;;1.70;0.93;;;15.00;99.90;;;;;;4976033;28;20057;-73
2022/07/29 00:15:14;;;;;;;1.02;0.85;;;15.00;99.90;;;;;;4958095;28;20023;-73
2022/07/29 00:17:40;;;;;;;5.80;0.80;;;15.00;99.90;;;;;;4974506;28;20023;-73
2022/07/29 00:20:06;;;;;;;1.20;0.80;;;14.90;99.90;;;;;;4957526;28;20026;-74
2022/07/29 00:22:32;;;;;;;0.55;0.43;;;15.00;99.90;;;;;;4975726;28;20039;-74
2022/07/29 00:24:58;;;;;;;3.47;0.52;;;14.90;99.90;;;;;;4974519;28;20027;-74
2022/07/29 00:27:23;;;;;;;0.65;0.63;;;15.00;99.90;;;;;;4957184;28;20034;-75
2022/07/29 00:29:49;;;;;;;3.45;1.38;;;14.90;99.90;;;;;;4975742;28;20071;-75
2022/07/29 00:32:14;;;;;;;1.45;0.80;;;15.00;99.90;;;;;;4957802;28;20038;-75
2022/07/29 00:37:25;;;;;;;1.10;0.80;;;14.80;99.90;;;;;;4975564;28;20034;-75
2022/07/29 00:39:50;;;;;;;0.73;0.52;;;14.70;99.90;;;;;;4974496;28;20031;-75
2022/07/29 00:42:17;;;;;;;0.50;0.50;;;14.80;99.90;;;;;;4974985;28;20039;-74
2022/07/29 00:44:43;;;;;;;0.70;0.70;;;14.70;99.90;;;;;;4975038;28;20522;-75
2022/07/29 00:47:12;;;;;;;4.25;0.88;;;14.70;99.90;;;;;;4974388;28;20027;-75
2022/07/29 00:49:39;;;;;;;2.97;1.30;;;14.70;99.90;;;;;;4974959;28;20045;-74
2022/07/29 00:52:05;;;;;;;4.18;1.08;;;14.70;99.90;;;;;;4974993;28;20088;-74
2022/07/29 00:54:33;;;;;;;3.55;1.27;;;14.60;99.90;;;;;;4974565;28;20041;-75
2022/07/29 00:56:59;;;;;;;1.23;0.90;;;14.60;99.90;;;;;;4974166;28;20031;-75
2022/07/29 00:59:27;;;;;;;1.23;0.70;;;14.60;99.90;;;;;;4974901;28;20035;-75
2022/07/29 01:01:53;;;;;;;2.22;1.13;;;14.60;99.90;;;;;;4974307;28;20035;-75
2022/07/29 01:04:20;;;;;;;2.50;1.17;;;14.60;99.90;;;;;;4974627;28;20033;-73
2022/07/29 01:06:46;;;;;;;2.10;1.08;;;14.50;99.90;;;;;;4974761;28;20058;-75
2022/07/29 01:09:13;;;;;;;2.47;0.98;;;14.50;99.90;;;;;;4955700;28;20416;-74
2022/07/29 01:11:39;;;;;;;2.03;0.88;;;14.60;99.90;;;;;;4974481;28;20026;-75
2022/07/29 01:14:06;;;;;;;1.73;0.70;;;14.50;99.90;;;;;;4973533;28;20087;-74
2022/07/29 01:16:41;;;;;;;0.95;0.70;;;14.50;99.90;;;;;;4973617;28;20121;-75
2022/07/29 01:19:44;;;;;;;2.70;1.08;;;14.50;99.90;;;;;;4957330;28;20460;-73
2022/07/29 01:22:28;;;;;;;0.80;0.70;;;14.40;99.90;;;;;;4951090;28;20071;-74
2022/07/29 01:25:09;;;;;;;0.95;0.73;;;14.50;99.90;;;;;;4974398;28;20030;-74
2022/07/29 01:27:57;;;;;;;2.28;1.00;;;14.40;99.90;;;;;;4957394;28;20050;-74
2022/07/29 01:30:25;;;;;;;2.00;0.88;;;14.50;99.90;;;;;;4974428;28;20086;-75
2022/07/29 01:32:57;;;;;;;5.55;0.95;;;14.40;99.90;;;;;;4956431;28;20129;-75
2022/07/29 01:35:27;;;;;;;1.02;0.82;;;14.40;99.90;;;;;;4974105;28;20475;-76
2022/07/29 01:38:17;;;;;;;1.85;0.55;;;14.40;99.90;;;;;;4956874;28;20026;-75
2022/07/29 01:40:44;;;;;;;0.85;0.60;;;14.30;99.90;;;;;;4974063;28;20019;-75
2022/07/29 01:43:14;;;;;;;1.38;0.75;;;14.30;99.90;;;;;;4973384;28;20034;-73
2022/07/29 01:46:00;;;;;;;10.25;1.25;;;14.30;99.90;;;;;;4956645;28;20034;-73
2022/07/29 01:48:47;;;;;;;1.70;1.02;;;14.30;99.90;;;;;;4956339;28;20019;-74
2022/07/29 01:51:45;;;;;;;5.88;1.27;;;14.30;99.90;;;;;;4973873;28;20039;-73
2022/07/29 01:54:34;;;;;;;0.77;0.65;;;14.30;99.90;;;;;;4956579;28;20046;-73
2022/07/29 01:57:01;;;;;;;3.15;1.38;;;14.30;99.90;;;;;;4973854;28;20035;-74
2022/07/29 01:59:29;;;;;;;4.88;1.23;;;14.30;99.90;;;;;;4973862;28;20026;-74
2022/07/29 02:01:58;;;;;;;1.75;0.85;;;14.30;99.90;;;;;;4955800;28;20047;-74
2022/07/29 02:04:25;;;;;;;3.28;1.20;;;14.30;99.90;;;;;;4973619;28;20035;-74
2022/07/29 02:06:54;;;;;;;1.88;0.80;;;14.20;99.90;;;;;;4956153;28;20058;-73
2022/07/29 02:09:21;;;;;;;1.38;0.77;;;14.20;99.90;;;;;;4973701;28;20030;-73
2022/07/29 02:11:53;;;;;;;3.25;0.80;;;14.20;99.90;;;;;;4973126;28;20059;-73
2022/07/29 02:14:22;;;;;;;2.90;1.30;;;14.20;99.90;;;;;;4973725;28;20027;-73
2022/07/29 02:16:51;;;;;;;1.25;0.60;;;14.20;99.90;;;;;;4956320;28;20023;-73
2022/07/29 02:19:19;;;;;;;1.05;0.80;;;14.10;99.90;;;;;;4973648;28;20058;-73
2022/07/29 02:21:46;;;;;;;1.30;0.75;;;14.10;99.90;;;;;;4973425;28;20039;-74
2022/07/29 02:24:13;;;;;;;1.38;0.75;;;14.10;99.90;;;;;;4972406;28;20110;-73
2022/07/29 02:26:41;;;;;;;1.50;0.77;;;14.10;99.90;;;;;;4972898;28;20395;-74
2022/07/29 02:29:09;;;;;;;1.10;0.75;;;14.10;99.90;;;;;;4972514;28;20031;-73
2022/07/29 02:31:36;;;;;;;1.50;0.85;;;14.10;99.90;;;;;;4972198;28;20054;-73
2022/07/29 02:34:06;;;;;;;3.13;1.02;;;14.10;99.90;;;;;;4972880;28;20138;-73
2022/07/29 02:36:33;;;;;;;8.07;1.38;;;14.10;99.90;;;;;;4956185;28;20027;-72
2022/07/29 02:39:00;;;;;;;1.20;0.90;;;14.00;99.90;;;;;;4973297;28;20031;-74
2022/07/29 02:41:35;;;;;;;4.57;1.52;;;14.00;99.90;;;;;;4973116;28;20368;-74
2022/07/29 02:44:11;;;;;;;9.93;1.00;;;14.10;99.90;;;;;;4973173;28;20036;-73
2022/07/29 02:46:41;;;;;;;1.88;0.82;;;14.00;99.90;;;;;;4972349;28;20055;-74
2022/07/29 02:49:13;;;;;;;1.40;1.00;;;14.00;99.90;;;;;;4972740;28;20023;-73
2022/07/29 02:51:45;;;;;;;1.08;0.80;;;14.00;99.90;;;;;;4972851;28;20035;-73
2022/07/29 02:54:26;;;;;;;6.90;0.85;;;14.00;99.90;;;;;;4972706;28;20035;-73
2022/07/29 02:56:55;;;;;;;2.47;1.00;;;14.00;99.90;;;;;;4973384;28;20019;-73
2022/07/29 02:59:25;;;;;;;4.65;1.00;;;14.00;99.90;;;;;;4972711;28;20094;-74
2022/07/29 03:01:54;;;;;;;2.17;0.80;;;13.90;99.90;;;;;;4973240;28;20114;-74
2022/07/29 03:04:22;;;;;;;2.45;1.20;;;14.00;99.90;;;;;;4973127;28;20034;-73
2022/07/29 03:06:49;;;;;;;1.00;0.73;;;14.00;99.90;;;;;;4972660;28;20050;-74
2022/07/29 03:09:15;;;;;;;2.13;0.98;;;14.00;99.90;;;;;;4972929;28;20027;-74
2022/07/29 03:11:43;;;;;;;2.20;1.05;;;14.00;99.90;;;;;;4971794;28;20019;-73
2022/07/29 03:14:09;;;;;;;1.58;0.90;;;14.00;99.90;;;;;;4974103;28;20023;-73
2022/07/29 03:16:36;;;;;;;5.10;1.33;;;14.00;99.90;;;;;;4973305;28;20027;-73
2022/07/29 03:19:02;;;;;;;2.83;1.17;;;13.90;99.90;;;;;;4971682;28;20023;-73
2022/07/29 03:21:28;;;;;;;7.93;0.93;;;13.90;99.90;;;;;;4972542;28;20122;-73
2022/07/29 03:23:54;;;;;;;2.65;1.42;;;13.90;99.90;;;;;;4972563;28;20385;-74
2022/07/29 03:26:20;;;;;;;1.17;0.80;;;13.90;99.90;;;;;;4972697;28;20050;-74
2022/07/29 03:28:46;;;;;;;11.65;1.42;;;13.90;99.90;;;;;;4972842;28;20467;-73
2022/07/29 03:31:11;;;;;;;2.63;1.05;;;14.00;99.90;;;;;;4972127;28;20031;-73
2022/07/29 03:33:37;;;;;;;1.77;0.95;;;14.00;99.90;;;;;;4971998;28;20051;-74
2022/07/29 03:36:02;;;;;;;1.83;0.90;;;14.00;99.90;;;;;;4972735;28;20050;-73
2022/07/29 03:38:32;;;;;;;1.27;0.82;;;14.00;99.90;;;;;;4956783;28;20034;-74
2022/07/29 03:41:02;;;;;;;0.75;0.68;;;13.90;99.90;;;;;;4976367;28;20034;-74
2022/07/29 03:43:31;;;;;;;2.40;1.00;;;13.90;99.90;;;;;;4976100;28;20023;-74
2022/07/29 03:45:59;;;;;;;2.85;1.50;;;14.00;99.90;;;;;;4958829;28;20418;-74
2022/07/29 03:48:29;;;;;;;8.13;0.45;;;13.80;99.90;;;;;;4958424;28;20095;-74
2022/07/29 03:50:55;;;;;;;9.65;1.17;;;13.90;99.90;;;;;;4976442;28;21587;-73
2022/07/29 03:53:21;;;;;;;1.48;0.75;;;13.90;99.90;;;;;;4958490;28;20027;-74
2022/07/29 03:55:56;;;;;;;3.97;1.40;;;13.90;99.90;;;;;;4975671;28;20651;-73
2022/07/29 03:58:26;;;;;;;1.05;0.82;;;13.90;99.90;;;;;;4976430;28;20119;-73
2022/07/29 04:00:53;;;;;;;2.72;1.00;;;13.80;99.90;;;;;;4975458;28;20023;-74
2022/07/29 04:03:20;;;;;;;1.73;0.88;;;13.90;99.90;;;;;;4976121;28;20038;-72
2022/07/29 04:05:58;;;;;;;2.40;0.80;;;13.90;99.90;;;;;;4975870;28;20027;-73
2022/07/29 04:08:23;;;;;;;3.47;1.35;;;13.90;99.90;;;;;;4975183;28;20452;-72
2022/07/29 04:10:49;;;;;;;3.72;1.20;;;14.00;99.90;;;;;;4975776;28;20082;-74
2022/07/29 04:13:15;;;;;;;1.58;1.02;;;13.90;99.90;;;;;;4975474;28;20050;-72
2022/07/29 04:15:40;;;;;;;4.22;1.67;;;14.00;99.90;;;;;;4958230;28;20452;-72
2022/07/29 04:18:06;;;;;;;1.15;0.68;;;13.90;99.90;;;;;;4975773;28;20035;-73
2022/07/29 04:20:31;;;;;;;1.15;0.70;;;14.00;99.90;;;;;;4975070;28;20077;-73
2022/07/29 04:22:57;;;;;;;2.85;1.13;;;14.00;99.90;;;;;;4958037;28;20042;-73
2022/07/29 04:25:23;;;;;;;1.70;1.00;;;14.00;99.90;;;;;;4976685;28;20094;-73
2022/07/29 04:28:00;;;;;;;14.57;1.30;;;14.10;99.90;;;;;;4975613;28;20113;-72
2022/07/29 04:30:26;;;;;;;1.77;1.00;;;14.00;99.90;;;;;;4975544;28;20051;-72
2022/07/29 04:32:52;;;;;;;1.45;1.20;;;14.00;99.90;;;;;;4974914;28;20054;-73
2022/07/29 04:35:19;;;;;;;1.05;0.82;;;14.00;99.90;;;;;;4975024;28;20089;-72
2022/07/29 04:37:44;;;;;;;2.17;1.27;;;14.00;99.90;;;;;;4975237;28;20024;-72
2022/07/29 04:40:11;;;;;;;3.00;0.70;;;14.10;99.90;;;;;;4975273;28;20097;-72
2022/07/29 04:42:37;;;;;;;1.27;0.88;;;14.10;99.90;;;;;;4974860;28;20042;-72
2022/07/29 04:45:03;;;;;;;8.45;0.90;;;14.10;99.90;;;;;;4957473;28;20027;-72
2022/07/29 04:47:29;;;;;;;2.10;0.82;;;14.20;99.90;;;;;;4975556;28;20034;-73
2022/07/29 04:49:56;;;;;;;1.90;1.10;;;14.20;99.90;;;;;;4974562;28;20034;-73
2022/07/29 04:52:22;;;;;;;1.63;1.05;;;14.20;99.90;;;;;;4974962;28;20024;-73
2022/07/29 04:54:49;;;;;;;1.15;0.57;;;14.20;99.90;;;;;;4974970;28;20078;-72
2022/07/29 04:57:14;;;;;;;6.20;1.48;;;14.30;99.90;;;;;;4974737;28;20011;-75
2022/07/29 04:59:40;;;;;;;7.90;1.05;;;14.30;99.90;;;;;;4957344;28;20062;-72
2022/07/29 05:02:06;;;;;;;1.17;0.73;;;14.20;99.90;;;;;;4957474;28;20031;-72
2022/07/29 05:04:31;;;;;;;1.65;1.23;;;14.20;99.90;;;;;;4974690;28;20035;-72
2022/07/29 05:06:57;;;;;;;1.23;0.75;;;14.30;99.90;;;;;;4974608;28;20023;-73
2022/07/29 05:09:23;;;;;;;11.15;1.50;;;14.20;99.90;;;;;;4957326;28;20184;-73
2022/07/29 05:11:48;;;;;;;2.78;1.15;;;14.20;99.90;;;;;;4974777;28;20038;-72
2022/07/29 05:14:14;;;;;;;3.97;0.90;;;14.20;99.90;;;;;;4974662;28;20472;-72
2022/07/29 05:16:45;;;;;;;1.35;0.95;;;14.20;99.90;;;;;;4957956;28;20031;-72
2022/07/29 05:19:11;;;;;;;5.60;1.35;;;14.30;99.90;;;;;;4975098;28;20125;-70
2022/07/29 05:21:36;;;;;;;2.53;0.95;;;14.30;99.90;;;;;;4974742;28;20083;-73
2022/07/29 05:24:02;;;;;;;1.35;0.90;;;14.30;99.90;;;;;;4974452;28;22290;-73
2022/07/29 05:26:28;;;;;;;3.28;1.38;;;14.30;99.90;;;;;;4975033;28;20058;-72
2022/07/29 05:28:54;;;;;;;4.60;1.02;;;14.50;99.90;;;;;;4973444;28;20053;-74
2022/07/29 05:31:20;;;;;;;4.18;0.80;;;14.40;99.90;;;;;;4974967;28;20065;-72
2022/07/29 05:33:45;;;;;;;3.85;1.30;;;14.50;99.90;;;;;;4974068;28;20046;-72
2022/07/29 05:36:11;;;;;;;1.90;1.02;;;14.60;99.90;;;;;;4974664;28;20038;-73
2022/07/29 05:38:37;;;;;;;2.58;0.90;;;14.50;99.90;;;;;;4976160;28;20031;-73
2022/07/29 05:41:03;;;;;;;1.20;0.85;;;14.70;99.90;;;;;;4975141;28;20031;-74
2022/07/29 05:43:29;;;;;;;1.35;0.73;;;14.60;99.90;;;;;;4957543;28;20039;-74
2022/07/29 05:45:55;;;;;;;2.20;1.05;;;14.70;99.90;;;;;;4957322;28;20041;-74
2022/07/29 05:48:21;;;;;;;3.42;1.63;;;14.80;99.90;;;;;;4975354;28;20031;-74
2022/07/29 05:50:47;;;;;;;1.58;1.10;;;14.80;99.90;;;;;;4975819;28;20037;-74
2022/07/29 05:53:12;;;;;;;1.48;1.13;;;14.90;99.90;;;;;;4974357;28;20027;-73
2022/07/29 05:55:38;;;;;;;1.40;0.95;;;15.00;99.90;;;;;;4973981;28;20023;-74
2022/07/29 05:58:03;;;;;;;4.03;0.82;;;15.00;99.90;;;;;;4957961;28;20035;-73
2022/07/29 06:00:29;;;;;;;2.45;1.08;;;14.90;99.90;;;;;;4975025;28;20039;-72
2022/07/29 06:02:56;;;;;;;2.15;1.00;;;15.20;99.90;;;;;;4973653;28;20046;-73
2022/07/29 06:05:22;;;;;;;2.25;1.35;;;15.20;99.90;;;;;;4957661;28;20460;-74
2022/07/29 06:07:47;;;;;;;14.90;1.23;;;15.20;99.90;;;;;;4955502;28;20053;-73
2022/07/29 06:10:13;;;;;;;2.55;1.23;;;15.20;99.90;;;;;;4974608;28;20031;-73
2022/07/29 06:12:39;;;;;;;2.47;0.98;;;15.30;99.90;;;;;;4975252;28;20042;-72
2022/07/29 06:15:05;;;;;;;2.55;1.10;;;15.30;99.90;;;;;;4974106;28;20030;-73
2022/07/29 06:17:30;;;;;;;2.45;1.13;;;15.40;99.90;;;;;;4973892;28;20475;-72
2022/07/29 06:19:56;;;;;;;2.55;1.27;;;15.50;99.90;;;;;;4974762;28;20054;-73
2022/07/29 06:22:22;;;;;;;0.93;0.77;;;15.50;99.90;;;;;;4974994;28;20103;-72
2022/07/29 06:24:47;;;;;;;1.63;1.05;;;15.60;99.90;;;;;;4975470;28;20488;-72
2022/07/29 06:27:13;;;;;;;4.60;1.30;;;15.50;99.90;;;;;;4974779;28;20071;-73
2022/07/29 06:29:39;;;;;;;2.25;0.95;;;15.60;99.90;;;;;;4973251;28;20390;-72
2022/07/29 06:32:05;;;;;;;1.55;1.20;;;15.70;99.90;;;;;;4956798;28;20094;-72
2022/07/29 06:34:31;;;;;;;1.90;1.17;;;15.70;99.90;;;;;;4973731;28;20053;-73
2022/07/29 06:36:56;;;;;;;2.42;0.90;;;15.80;99.90;;;;;;4956395;28;20106;-73
2022/07/29 06:39:22;;;;;;;2.38;1.40;;;15.70;99.90;;;;;;4974331;28;21080;-73
2022/07/29 06:41:49;;;;;;;1.23;0.80;;;15.80;99.90;;;;;;4974208;28;20055;-72
2022/07/29 06:44:15;;;;;;;2.30;1.40;;;15.80;99.90;;;;;;4973863;28;20050;-74
2022/07/29 06:46:41;;;;;;;1.55;0.93;;;15.90;99.90;;;;;;4956817;28;20146;-73
2022/07/29 06:49:07;;;;;;;3.03;1.30;;;15.80;99.90;;;;;;4955736;28;20105;-72
2022/07/29 06:51:33;;;;;;;2.22;0.98;;;15.90;99.90;;;;;;4974924;28;20027;-73
2022/07/29 06:54:00;;;;;;;8.05;1.25;;;16.00;99.90;;;;;;4974726;28;20035;-73
2022/07/29 06:56:26;;;;;;;4.05;0.90;;;16.00;99.90;;;;;;4974824;28;20138;-73
2022/07/29 06:58:52;;;;;;;2.65;1.17;;;16.10;99.90;;;;;;4974594;28;20980;-73
2022/07/29 07:01:17;;;;;;;1.17;0.80;;;16.20;99.90;;;;;;4975823;28;20050;-72
2022/07/29 07:03:43;;;;;;;5.63;1.52;;;16.30;99.90;;;;;;4975008;28;20042;-73
2022/07/29 07:06:08;;;;;;;0.90;0.70;;;16.30;99.90;;;;;;4973343;28;20030;-73
2022/07/29 07:08:34;;;;;;;1.38;1.10;;;16.40;99.90;;;;;;4974625;28;20045;-73
2022/07/29 07:10:59;;;;;;;4.72;1.10;;;16.40;99.90;;;;;;4955495;28;20035;-75
2022/07/29 07:13:25;;;;;;;4.85;0.93;;;16.50;99.90;;;;;;4975814;28;20046;-73
2022/07/29 07:15:51;;;;;;;4.40;1.05;;;16.60;99.90;;;;;;4977105;28;20704;-73
2022/07/29 07:18:18;;;;;;;1.48;1.00;;;16.70;99.90;;;;;;4960948;28;20059;-74
2022/07/29 07:20:44;;;;;;;2.40;0.90;;;16.70;99.90;;;;;;4976978;28;20036;-73
2022/07/29 07:23:10;;;;;;;2.17;1.02;;;16.80;99.90;;;;;;4960404;28;20042;-74
2022/07/29 07:25:35;;;;;;;3.42;1.38;;;16.90;99.90;;;;;;4959793;28;20039;-73
2022/07/29 07:28:02;;;;;;;3.85;1.13;;;17.00;99.90;;;;;;4977423;28;20546;-73
2022/07/29 07:30:28;;;;;;;1.40;0.93;;;17.00;99.90;;;;;;4976808;28;20127;-73
2022/07/29 07:32:55;;;;;;;1.92;1.33;;;17.10;99.90;;;;;;4958974;28;20078;-73
2022/07/29 07:35:21;;;;;;;14.73;1.48;;;17.20;99.90;;;;;;4977034;28;20039;-74
2022/07/29 07:37:47;;;;;;;1.40;1.00;;;17.30;99.90;;;;;;4959378;28;20038;-73
2022/07/29 07:40:13;;;;;;;2.38;1.08;;;17.40;99.90;;;;;;4960587;28;20027;-73
2022/07/29 07:42:40;;;;;;;3.28;1.35;;;17.40;99.90;;;;;;4959397;28;20049;-73
2022/07/29 07:45:08;;;;;;;0.63;0.50;;;17.40;99.90;;;;;;4978236;28;20029;-74
2022/07/29 07:47:35;;;;;;;1.02;0.93;;;17.50;99.90;;;;;;4976744;28;20553;-72
2022/07/29 07:50:00;;;;;;;0.75;0.70;;;17.60;99.90;;;;;;4966396;28;20103;-72
2022/07/29 07:52:26;;;;;;;1.02;0.93;;;17.60;99.90;;;;;;4977132;28;20036;-74
2022/07/29 07:54:52;;;;;;;1.63;0.80;;;17.80;99.90;;;;;;4959225;28;20073;-74
2022/07/29 07:57:18;;;;;;;1.13;0.88;;;17.90;99.90;;;;;;4976969;28;20054;-72
2022/07/29 07:59:44;;;;;;;2.97;1.02;;;18.00;99.90;;;;;;4976385;28;20059;-73
2022/07/29 08:02:09;;;;;;;2.88;0.93;;;18.10;99.90;;;;;;4975742;28;20058;-74
2022/07/29 08:04:35;;;;;;;3.03;1.42;;;18.20;99.90;;;;;;4977487;28;20031;-72
2022/07/29 08:07:02;;;;;;;1.88;1.02;;;18.30;99.90;;;;;;4958657;28;20022;-73
2022/07/29 08:09:29;;;;;;;1.30;0.90;;;18.40;99.90;;;;;;4976139;28;20038;-73
2022/07/29 08:11:55;;;;;;;2.78;1.30;;;18.30;99.90;;;;;;4958522;28;20031;-73
2022/07/29 08:14:21;;;;;;;4.07;1.30;;;18.40;99.90;;;;;;4975897;28;20038;-73
2022/07/29 08:16:47;;;;;;;1.63;0.93;;;18.40;99.90;;;;;;4976211;28;20023;-73
2022/07/29 08:19:15;;;;;;;1.42;1.02;;;18.40;99.90;;;;;;4975844;28;20086;-74
2022/07/29 08:21:40;;;;;;;1.90;1.00;;;18.40;99.90;;;;;;4976189;28;20050;-73
2022/07/29 08:26:50;;;;;;;1.50;0.60;;;18.40;99.90;;;;;;4976588;28;20034;-73
2022/07/29 08:29:16;;;;;;;25.15;1.27;;;18.40;99.90;;;;;;4976177;28;20038;-74
2022/07/29 08:31:42;;;;;;;1.95;1.10;;;18.50;99.90;;;;;;4978045;28;20094;-73
2022/07/29 08:34:08;;;;;;;2.22;0.90;;;18.40;99.90;;;;;;4977566;28;20046;-73
2022/07/29 08:36:34;;;;;;;2.83;1.33;;;18.50;99.90;;;;;;4974121;28;20162;-73
2022/07/29 08:39:01;;;;;;;2.25;0.90;;;18.50;99.90;;;;;;4975515;28;20038;-75
2022/07/29 08:41:27;;;;;;;3.05;1.25;;;18.50;99.90;;;;;;4976172;28;20065;-74
2022/07/29 08:43:53;;;;;;;1.02;0.70;;;18.50;99.90;;;;;;4975193;28;20039;-73
2022/07/29 08:46:20;;;;;;;3.35;1.20;;;18.60;99.90;;;;;;4974738;28;20102;-72
2022/07/29 08:48:47;;;;;;;1.55;0.80;;;18.80;99.90;;;;;;4974379;28;20138;-75
2022/07/29 08:51:15;;;;;;;7.25;1.25;;;19.00;99.90;;;;;;4965653;28;20115;-73
2022/07/29 08:53:43;;;;;;;1.42;1.13;;;19.30;99.90;;;;;;4971890;28;20479;-73
2022/07/29 08:56:13;;;;;;;2.33;1.30;;;19.50;99.90;;;;;;4972372;28;20062;-73
2022/07/29 08:58:39;;;;;;;1.20;0.88;;;19.70;99.90;;;;;;4974001;28;20037;-74
2022/07/29 09:01:06;;;;;;;3.83;1.40;;;19.90;99.90;;;;;;4973703;28;20086;-74
2022/07/29 09:03:35;;;;;;;1.42;1.00;;;20.20;99.90;;;;;;4974179;28;20033;-73
2022/07/29 09:06:02;;;;;;;1.65;0.90;;;20.30;99.90;;;;;;4974453;28;20051;-75
2022/07/29 09:08:30;;;;;;;1.10;0.60;;;20.60;99.90;;;;;;4975421;28;20066;-74
2022/07/29 09:10:56;;;;;;;0.80;0.68;;;20.90;99.90;;;;;;4975414;28;20155;-74
2022/07/29 09:13:22;;;;;;;2.97;0.95;;;21.00;99.90;;;;;;4975797;28;20468;-74
2022/07/29 09:15:48;;;;;;;0.98;0.77;;;21.30;99.90;;;;;;4974678;28;20074;-74
2022/07/29 09:18:40;;;;;;;1.70;1.15;;;21.50;99.90;;;;;;4974784;28;20023;-73
2022/07/29 09:24:19;;;;;;;0.75;0.73;;;21.80;99.90;;;;;;4974252;28;20045;-74
2022/07/29 09:26:46;;;;;;;1.02;0.65;;;22.10;99.90;;;;;;4969603;28;20056;-74
2022/07/29 09:29:17;;;;;;;1.70;0.90;;;22.20;99.90;;;;;;4974962;28;20053;-74
2022/07/29 09:31:45;;;;;;;2.60;0.77;;;22.40;99.90;;;;;;4973766;28;20384;-73
2022/07/29 09:34:11;;;;;;;0.85;0.55;;;22.50;99.90;;;;;;4973289;28;20047;-73
2022/07/29 09:36:47;;;;;;;3.50;0.85;;;22.70;99.90;;;;;;4972079;28;20026;-73
2022/07/29 09:39:14;;;;;;;2.78;1.52;;;22.80;99.90;;;;;;4974789;28;20039;-73
2022/07/29 09:41:54;;;;;;;1.00;0.50;;;23.00;99.90;;;;;;4973940;28;20043;-74
2022/07/29 09:44:21;;;;;;;1.10;0.68;;;23.30;99.90;;;;;;4973448;28;20122;-74
2022/07/29 09:46:58;;;;;;;1.00;0.82;;;23.40;99.90;;;;;;4973275;28;20051;-72
2022/07/29 09:49:25;;;;;;;4.88;0.73;;;23.60;99.90;;;;;;4957744;28;20035;-73
2022/07/29 09:52:04;;;;;;;1.10;0.75;;;23.70;99.90;;;;;;4956909;28;20027;-74
2022/07/29 09:54:36;;;;;;;0.98;0.60;;;23.70;99.90;;;;;;4974081;28;20058;-74
2022/07/29 09:57:04;;;;;;;1.95;0.63;;;23.60;99.90;;;;;;4956312;28;20395;-73
2022/07/29 09:59:30;;;;;;;2.05;1.05;;;23.80;99.90;;;;;;4973283;28;20061;-74
2022/07/29 10:01:56;;;;;;;0.80;0.65;;;23.90;99.90;;;;;;4974386;28;20050;-75
2022/07/29 10:04:22;;;;;;;2.35;0.90;;;24.00;99.90;;;;;;4975073;28;20043;-73
2022/07/29 10:07:04;;;;;;;2.55;0.80;;;24.10;99.90;;;;;;4972784;28;20045;-73
2022/07/29 10:09:33;;;;;;;3.95;1.08;;;24.00;99.90;;;;;;4973283;28;20045;-74
2022/07/29 10:12:09;;;;;;;1.48;0.50;;;23.90;99.90;;;;;;4973019;28;20129;-73
2022/07/29 10:14:35;;;;;;;0.80;0.73;;;23.90;99.90;;;;;;4956028;28;20143;-73
2022/07/29 10:17:02;;;;;;;3.05;0.85;;;23.90;99.90;;;;;;4972289;28;20038;-73
2022/07/29 10:19:30;;;;;;;3.88;0.63;;;23.90;99.90;;;;;;4954240;28;20031;-74
2022/07/29 10:21:57;;;;;;;1.08;0.60;;;23.90;99.90;;;;;;4972062;28;20035;-71
2022/07/29 10:24:28;;;;;;;7.75;1.00;;;23.80;99.90;;;;;;4968394;28;20115;-72
2022/07/29 10:26:58;;;;;;;1.63;0.85;;;23.80;99.90;;;;;;4974153;28;20023;-73
2022/07/29 10:29:25;;;;;;;1.55;0.73;;;23.70;99.90;;;;;;4973964;28;20102;-72
2022/07/29 10:32:13;;;;;;;1.67;0.75;;;23.70;99.90;;;;;;4973440;28;20062;-71
2022/07/29 10:34:54;;;;;;;3.35;1.23;;;23.80;99.90;;;;;;4972628;28;20042;-74
2022/07/29 10:37:24;;;;;;;3.95;0.82;;;23.90;99.90;;;;;;4973482;28;20034;-73
2022/07/29 10:41:26;;;;;;;5.50;0.80;;;24.00;99.90;;;;;;4972072;28;20034;-73
2022/07/29 10:42:55;;;;;;;5.55;0.85;;;24.10;99.90;;;;;;4972076;28;20051;-74
2022/07/29 10:45:22;;;;;;;0.85;0.70;;;24.20;99.90;;;;;;4973739;28;20038;-73
2022/07/29 10:47:48;;;;;;;9.48;1.10;;;24.30;99.90;;;;;;4975820;28;20042;-74
2022/07/29 10:50:14;;;;;;;0.70;0.65;;;24.40;99.90;;;;;;4963033;28;20034;-73
2022/07/29 10:52:53;;;;;;;1.20;0.77;;;24.40;99.90;;;;;;4977728;28;20036;-74
2022/07/29 10:55:34;;;;;;;2.30;0.93;;;24.40;99.90;;;;;;4967960;28;20058;-73
2022/07/29 10:58:23;;;;;;;0.82;0.60;;;24.40;99.90;;;;;;4981420;28;20034;-75
2022/07/29 11:00:53;;;;;;;6.63;1.02;;;24.50;99.90;;;;;;4979807;28;20026;-74
2022/07/29 11:03:49;;;;;;;0.70;0.55;;;24.50;99.90;;;;;;4978333;28;20046;-73
2022/07/29 11:06:15;;;;;;;3.78;0.85;;;24.50;99.90;;;;;;4978351;28;20023;-74
2022/07/29 11:08:41;;;;;;;0.70;0.50;;;24.60;99.90;;;;;;4960610;28;20139;-73
2022/07/29 11:11:31;;;;;;;0.80;0.68;;;24.70;99.90;;;;;;4979556;28;20101;-72
2022/07/29 11:13:58;;;;;;;2.55;0.70;;;24.80;99.90;;;;;;4977507;28;20054;-73
2022/07/29 11:16:24;;;;;;;4.68;1.02;;;24.80;99.90;;;;;;4963760;28;20065;-72
2022/07/29 11:19:11;;;;;;;1.65;0.93;;;24.90;99.90;;;;;;4979866;28;20031;-74
2022/07/29 11:21:39;;;;;;;1.17;0.88;;;24.90;99.90;;;;;;4978085;28;20042;-73
2022/07/29 11:24:15;;;;;;;2.00;0.75;;;24.90;99.90;;;;;;4977393;28;20129;-73
2022/07/29 11:26:42;;;;;;;3.03;0.80;;;25.00;99.90;;;;;;4976926;28;20121;-74
2022/07/29 11:29:24;;;;;;;0.98;0.57;;;25.30;99.90;;;;;;4960778;28;20038;-74
2022/07/29 11:31:56;;;;;;;1.35;0.80;;;25.70;99.90;;;;;;4959989;28;20027;-73
2022/07/29 11:34:35;;;;;;;1.48;0.60;;;26.00;99.90;;;;;;4977866;28;20070;-74
2022/07/29 11:37:06;;;;;;;1.83;0.70;;;26.30;99.90;;;;;;4977313;28;20042;-74
2022/07/29 11:39:44;;;;;;;1.85;0.88;;;26.50;99.90;;;;;;4978594;28;20369;-74
2022/07/29 11:42:25;;;;;;;1.35;0.80;;;26.70;99.90;;;;;;4978483;28;20074;-73
2022/07/29 11:45:21;;;;;;;1.20;0.70;;;26.60;99.90;;;;;;4978636;28;20784;-72
2022/07/29 11:47:50;;;;;;;1.23;0.70;;;26.60;99.90;;;;;;4978223;28;20062;-72
2022/07/29 11:50:31;;;;;;;1.63;0.60;;;26.50;99.90;;;;;;4979701;28;20031;-72
2022/07/29 11:52:57;;;;;;;0.70;0.50;;;26.60;99.90;;;;;;4979564;28;20542;-72
2022/07/29 11:55:41;;;;;;;4.20;1.05;;;26.80;99.90;;;;;;4978459;28;20047;-73
2022/07/29 11:58:08;;;;;;;0.65;0.65;;;26.90;99.90;;;;;;4977246;28;20038;-72
2022/07/29 12:00:42;;;;;;;1.10;0.55;;;26.90;99.90;;;;;;4974895;28;20035;-73
2022/07/29 12:03:10;;;;;;;1.55;0.55;;;26.90;99.90;;;;;;4974904;28;20035;-72
2022/07/29 12:05:40;;;;;;;1.55;0.90;;;26.90;99.90;;;;;;4976134;28;20058;-72
2022/07/29 12:08:06;;;;;;;1.42;0.68;;;26.90;99.90;;;;;;4975481;28;20049;-73
2022/07/29 12:10:32;;;;;;;2.38;0.65;;;26.80;99.90;;;;;;4974865;28;20019;-73
2022/07/29 12:12:57;;;;;;;0.93;0.55;;;26.80;99.90;;;;;;4975098;28;20100;-73
2022/07/29 12:15:25;;;;;;;3.63;0.50;;;26.70;99.90;;;;;;4975618;28;20086;-71
2022/07/29 12:17:50;;;;;;;4.00;0.82;;;26.60;99.90;;;;;;4974905;28;20527;-72
2022/07/29 12:20:28;;;;;;;0.70;0.50;;;26.60;99.90;;;;;;4974625;28;20039;-74
2022/07/29 12:22:55;;;;;;;1.55;0.52;;;26.50;99.90;;;;;;4976304;28;20062;-72
2022/07/29 12:25:23;;;;;;;1.95;0.85;;;26.50;99.90;;;;;;4974648;28;20384;-72
2022/07/29 12:28:09;;;;;;;1.13;0.50;;;26.40;99.90;;;;;;4975705;28;20031;-73
2022/07/29 12:30:39;;;;;;;2.83;1.05;;;26.20;99.90;;;;;;4974055;28;20030;-72
2022/07/29 12:33:31;;;;;;;7.05;1.05;;;26.20;99.90;;;;;;4973037;28;20054;-71
2022/07/29 12:36:01;;;;;;;1.63;0.88;;;26.10;99.90;;;;;;4970048;28;20075;-72
2022/07/29 12:38:28;;;;;;;2.63;0.98;;;26.10;99.90;;;;;;4974091;28;20050;-73
2022/07/29 12:40:54;;;;;;;0.82;0.50;;;26.00;99.90;;;;;;4973866;28;20027;-74
2022/07/29 12:43:23;;;;;;;2.88;0.90;;;26.00;99.90;;;;;;4974368;28;20043;-73
2022/07/29 12:45:56;;;;;;;0.82;0.47;;;25.90;99.90;;;;;;4974643;28;20054;-73
2022/07/29 12:48:42;;;;;;;2.63;0.82;;;25.80;99.90;;;;;;4974429;28;20031;-73
2022/07/29 12:51:09;;;;;;;2.50;1.17;;;25.80;99.90;;;;;;4973933;28;20039;-73
2022/07/29 12:53:36;;;;;;;1.73;0.80;;;25.80;99.90;;;;;;4955593;28;20499;-72
2022/07/29 12:56:03;;;;;;;2.20;0.93;;;25.80;99.90;;;;;;4974281;28;20031;-74
2022/07/29 12:58:29;;;;;;;0.93;0.57;;;25.90;99.90;;;;;;4956235;28;20026;-74
2022/07/29 13:01:03;;;;;;;3.22;0.88;;;26.00;99.90;;;;;;4973319;28;20034;-73
2022/07/29 13:03:29;;;;;;;0.53;0.53;;;26.10;99.90;;;;;;4973248;28;20125;-75